Time;durP1;ratioP1;P1;durP2;ratioP2;P2;SDS_P1;SDS_P2;PMS_P1;PMS_P2;Temp;Humidity;BMP_temperature;BMP_pressure;BME280_temperature;BME280_humidity;BME280_pressure;Samples;Min_cycle;Max_cycle;Signal;HPM_P1;HPM_P2
2021/04/11 00:00:12;;;;;;;5.38;3.10;;;6.40;99.00;;;6.08;59.37;97516.31;172710;28;948;-70
2021/04/11 00:00:35;;;;;;;6.22;3.06;;;6.40;99.20;;;6.11;59.47;97524.03;174591;28;1460;-70
2021/04/11 00:00:42;;;;;;;6.25;3.10;;;6.40;99.50;;;6.11;59.48;97513.34;172654;28;1212;-70
2021/04/11 00:00:48;;;;;;;6.46;3.36;;;6.40;99.70;;;6.15;59.39;97522.72;173149;28;1617;-70
2021/04/11 00:00:54;;;;;;;6.34;3.40;;;6.40;99.70;;;6.14;59.22;97526.38;173291;28;1023;-70
2021/04/11 00:01:00;;;;;;;6.60;3.22;;;6.40;99.70;;;6.11;59.15;97516.03;173054;28;1693;-70
2021/04/11 00:01:06;;;;;;;6.87;3.23;;;6.40;99.60;;;6.15;59.41;97530.75;173295;28;1188;-70
2021/04/11 00:01:14;;;;;;;6.68;3.22;;;6.40;99.60;;;6.11;58.84;97516.88;171808;28;2067;-70
2021/04/11 00:01:20;;;;;;;6.00;2.90;;;6.30;99.60;;;6.15;59.31;97525.41;173371;28;963;-70
2021/04/11 00:01:26;;;;;;;5.93;2.87;;;6.40;99.60;;;6.16;58.84;97516.38;172701;28;983;-70
2021/04/11 00:01:32;;;;;;;6.03;2.92;;;6.40;99.60;;;6.15;59.05;97525.41;172748;28;997;-70
2021/04/11 00:01:40;;;;;;;6.57;2.90;;;6.40;99.50;;;6.13;58.60;97522.03;172709;28;871;-70
2021/04/11 00:01:46;;;;;;;6.52;2.93;;;6.40;99.50;;;6.14;58.66;97521.88;174030;28;949;-70
2021/04/11 00:01:52;;;;;;;6.95;3.20;;;6.40;99.50;;;6.12;59.10;97518.53;174774;28;1010;-70
2021/04/11 00:01:58;;;;;;;7.15;3.33;;;6.40;99.70;;;6.10;59.00;97517.03;172889;28;1188;-70
2021/04/11 00:02:05;;;;;;;6.63;3.40;;;6.40;99.80;;;6.11;59.03;97518.69;172637;28;931;-70
2021/04/11 00:02:11;;;;;;;6.14;3.42;;;6.40;99.90;;;6.12;59.64;97523.88;172202;28;2680;-70
2021/04/11 00:02:17;;;;;;;6.80;3.40;;;6.30;99.90;;;6.13;59.24;97524.72;172042;28;1902;-70
2021/04/11 00:02:23;;;;;;;6.80;3.40;;;6.30;99.90;;;6.14;59.37;97523.72;172499;28;1451;-70
2021/04/11 00:02:29;;;;;;;6.32;3.10;;;6.40;99.90;;;6.08;58.81;97519.00;173339;28;934;-70
2021/04/11 00:02:35;;;;;;;6.57;3.13;;;6.30;99.90;;;6.08;59.33;97510.97;173220;28;1159;-70
2021/04/11 00:02:41;;;;;;;6.20;3.10;;;6.40;99.90;;;6.13;59.36;97524.72;172723;28;934;-70
2021/04/11 00:02:48;;;;;;;5.22;3.00;;;6.30;99.90;;;6.10;59.47;97519.69;173234;28;1326;-70
2021/04/11 00:02:55;;;;;;;5.73;3.07;;;6.40;99.90;;;6.12;59.03;97525.69;173934;28;1542;-70
2021/04/11 00:03:04;;;;;;;6.40;3.30;;;6.30;99.90;;;6.10;59.72;97520.53;174066;28;1055;-70
2021/04/11 00:03:17;;;;;;;6.03;3.20;;;6.30;99.90;;;6.12;59.01;97526.53;174538;28;1264;-70
2021/04/11 00:03:27;;;;;;;6.36;3.21;;;6.30;99.90;;;6.11;58.81;97524.03;173999;28;1399;-70
2021/04/11 00:03:33;;;;;;;6.07;3.10;;;6.30;99.90;;;6.07;58.97;97517.31;173364;28;1207;-70
2021/04/11 00:03:39;;;;;;;6.70;3.03;;;6.30;99.80;;;6.10;58.79;97522.38;173350;28;984;-70
2021/04/11 00:03:45;;;;;;;7.10;3.20;;;6.30;99.60;;;6.07;59.02;97517.31;173433;28;1150;-70
2021/04/11 00:03:51;;;;;;;6.80;3.17;;;6.30;99.60;;;6.09;58.84;97524.19;174083;28;812;-70
2021/04/11 00:03:57;;;;;;;6.28;3.13;;;6.30;99.70;;;6.05;59.07;97514.81;174067;28;955;-70
2021/04/11 00:04:04;;;;;;;6.38;3.28;;;6.30;99.70;;;6.05;59.01;97522.84;172594;28;1362;-70
2021/04/11 00:04:09;;;;;;;5.97;3.27;;;6.30;99.80;;;6.07;58.97;97515.47;173386;28;914;-70
2021/04/11 00:04:15;;;;;;;7.95;3.20;;;6.30;99.90;;;6.08;59.25;97519.00;173975;28;1691;-70
2021/04/11 00:04:21;;;;;;;7.85;3.20;;;6.30;99.90;;;6.13;59.00;97527.38;173281;28;1475;-70
2021/04/11 00:04:27;;;;;;;8.07;3.35;;;6.30;99.90;;;6.10;59.24;97522.38;173338;28;903;-70
2021/04/11 00:04:33;;;;;;;8.10;3.15;;;6.30;99.90;;;6.11;59.47;97527.56;173335;28;875;-70
2021/04/11 00:04:39;;;;;;;7.80;3.15;;;6.30;99.90;;;6.10;59.31;97517.03;172632;28;1097;-70
2021/04/11 00:04:45;;;;;;;5.90;3.08;;;6.30;99.90;;;6.11;59.03;97530.22;173299;28;780;-70
2021/04/11 00:04:52;;;;;;;5.88;3.03;;;6.30;99.90;;;6.11;59.04;97527.56;173218;28;1497;-70
2021/04/11 00:04:58;;;;;;;6.00;3.00;;;6.30;99.90;;;6.05;59.58;97517.50;173686;28;1155;-70
2021/04/11 00:05:06;;;;;;;6.40;3.08;;;6.30;99.90;;;6.08;59.35;97521.66;173685;28;1312;-70
2021/04/11 00:05:15;;;;;;;6.52;3.05;;;6.30;99.90;;;6.08;59.58;97525.19;174059;28;938;-70
2021/04/11 00:05:28;;;;;;;5.87;3.06;;;6.30;99.90;;;6.12;59.24;97528.38;174349;28;1692;-70
2021/04/11 00:05:40;;;;;;;5.93;2.99;;;6.30;99.90;;;6.07;58.99;97520.00;174038;28;1205;-70
2021/04/11 00:05:47;;;;;;;6.15;2.96;;;6.30;99.90;;;6.10;58.87;97523.22;174663;28;1480;-70
2021/04/11 00:05:55;;;;;;;6.14;3.00;;;6.30;99.90;;;6.12;58.24;97536.38;173842;28;1143;-70
2021/04/11 00:06:01;;;;;;;5.66;3.00;;;6.30;99.90;;;6.11;59.05;97530.22;174044;28;2082;-70
2021/04/11 00:06:07;;;;;;;5.03;3.08;;;6.30;99.90;;;6.12;58.83;97528.38;174675;28;1031;-70
2021/04/11 00:06:13;;;;;;;5.62;3.10;;;6.30;99.90;;;6.09;59.06;97520.69;173329;28;2109;-70
2021/04/11 00:06:19;;;;;;;6.10;3.17;;;6.30;99.90;;;6.11;58.63;97526.72;173620;28;1757;-70
2021/04/11 00:06:25;;;;;;;6.28;3.30;;;6.30;99.90;;;6.12;58.54;97526.53;174063;28;918;-70
2021/04/11 00:06:31;;;;;;;6.33;3.33;;;6.30;99.90;;;6.11;59.08;97526.72;173890;28;2224;-70
2021/04/11 00:06:37;;;;;;;6.54;3.38;;;6.30;99.90;;;6.14;59.42;97521.03;173870;28;2028;-70
2021/04/11 00:06:43;;;;;;;7.00;3.35;;;6.30;99.90;;;6.15;59.38;97526.25;173299;28;1483;-70
2021/04/11 00:06:49;;;;;;;6.80;3.27;;;6.30;99.90;;;6.14;60.05;97526.38;172542;28;1148;-70
2021/04/11 00:06:55;;;;;;;6.43;3.13;;;6.30;99.90;;;6.15;60.19;97520.06;172643;28;896;-70
2021/04/11 00:07:01;;;;;;;6.78;3.13;;;6.30;99.90;;;6.11;59.97;97518.69;172724;28;800;-70
2021/04/11 00:07:06;;;;;;;6.70;2.95;;;6.30;99.90;;;6.12;60.08;97523.03;171897;28;1191;-70
2021/04/11 00:07:14;;;;;;;5.55;2.95;;;6.30;99.90;;;6.12;60.03;97509.66;172039;28;852;-70
2021/04/11 00:07:20;;;;;;;5.42;2.94;;;6.30;99.90;;;6.10;59.93;97523.22;172712;28;1517;-70
2021/04/11 00:07:26;;;;;;;5.43;2.88;;;6.30;99.90;;;6.09;59.88;97512.66;174049;28;929;-70
2021/04/11 00:07:32;;;;;;;4.60;2.70;;;6.30;99.90;;;6.06;59.89;97513.84;174051;28;963;-70
2021/04/11 00:07:38;;;;;;;4.66;2.76;;;6.30;99.90;;;5.92;60.39;97490.34;174054;28;1117;-70
2021/04/11 00:07:45;;;;;;;5.00;2.67;;;6.30;99.90;;;6.11;60.53;97526.72;171909;28;1101;-70
2021/04/11 00:07:51;;;;;;;5.03;2.67;;;6.30;99.90;;;6.07;60.21;97511.97;173975;28;1390;-70
2021/04/11 00:07:59;;;;;;;5.10;2.70;;;6.30;99.90;;;6.11;60.17;97529.38;174238;28;1431;-70
2021/04/11 00:08:10;;;;;;;5.28;2.77;;;6.30;99.90;;;6.06;59.62;97516.50;173660;28;1196;-70
2021/04/11 00:08:18;;;;;;;6.60;3.10;;;6.30;99.90;;;6.04;59.70;97515.81;173895;28;1429;-70
2021/04/11 00:08:24;;;;;;;6.87;3.18;;;6.30;99.90;;;6.05;60.04;97516.66;174056;28;2158;-70
2021/04/11 00:08:30;;;;;;;7.90;3.40;;;6.30;99.90;;;6.07;60.11;97522.66;174795;28;912;-70
2021/04/11 00:08:36;;;;;;;7.93;3.45;;;6.30;99.90;;;6.08;60.01;97530.53;175256;28;1142;-70
2021/04/11 00:08:42;;;;;;;6.30;3.38;;;6.30;99.90;;;6.05;59.49;97525.50;174005;28;1126;-70
2021/04/11 00:08:48;;;;;;;6.07;3.40;;;6.30;99.90;;;6.04;59.45;97525.66;173921;28;1298;-70
2021/04/11 00:08:54;;;;;;;5.65;3.30;;;6.30;99.90;;;6.06;59.04;97531.69;173339;28;904;-70
2021/04/11 00:09:00;;;;;;;5.43;3.17;;;6.30;99.90;;;5.94;58.99;97518.59;173423;28;1616;-70
2021/04/11 00:09:07;;;;;;;5.67;3.10;;;6.30;99.90;;;6.03;59.52;97526.66;172609;28;1433;-70
2021/04/11 00:09:13;;;;;;;6.13;3.00;;;6.30;99.80;;;5.98;59.60;97524.47;171912;28;1368;-70
2021/04/11 00:09:19;;;;;;;6.25;3.00;;;6.30;99.70;;;6.00;59.57;97518.97;171960;28;1366;-70
2021/04/11 00:09:25;;;;;;;6.44;2.98;;;6.30;99.80;;;6.00;59.59;97521.63;171916;28;1566;-70
2021/04/11 00:09:31;;;;;;;6.03;2.95;;;6.30;99.90;;;6.05;59.33;97525.50;173770;28;1777;-70
2021/04/11 00:09:37;;;;;;;5.28;2.88;;;6.30;99.90;;;6.03;59.66;97515.97;174702;28;980;-70
2021/04/11 00:09:43;;;;;;;5.28;2.90;;;6.30;99.90;;;6.08;59.68;97525.19;174607;28;1250;-70
2021/04/11 00:09:49;;;;;;;5.55;2.90;;;6.30;99.90;;;6.08;59.52;97519.84;173933;28;1329;-70
2021/04/11 00:09:55;;;;;;;5.32;2.90;;;6.30;99.90;;;6.12;60.15;97528.38;174686;28;1202;-70
2021/04/11 00:10:01;;;;;;;5.57;2.80;;;6.30;99.90;;;6.13;59.43;97527.38;174725;28;965;-70
2021/04/11 00:10:29;;;;;;;6.18;3.05;;;6.30;99.90;;;6.12;59.50;97526.53;173218;28;1658;-70
2021/04/11 00:10:41;;;;;;;6.41;3.09;;;6.30;99.90;;;6.14;59.66;97521.03;173219;28;2842;-70
2021/04/11 00:10:57;;;;;;;6.66;3.04;;;6.30;99.90;;;6.11;59.90;97516.03;173535;28;2076;-70
2021/04/11 00:11:04;;;;;;;5.81;3.10;;;6.30;99.90;;;6.06;59.84;97513.84;173911;28;1429;-70
2021/04/11 00:11:10;;;;;;;5.88;3.40;;;6.30;99.90;;;6.14;59.36;97523.72;174547;28;929;-70
2021/04/11 00:11:16;;;;;;;5.82;3.40;;;6.30;99.90;;;6.13;59.79;97522.88;174682;28;1041;-70
2021/04/11 00:11:23;;;;;;;5.95;3.33;;;6.30;99.90;;;6.18;59.96;97519.72;173308;28;936;-70
2021/04/11 00:11:29;;;;;;;5.64;3.30;;;6.30;99.90;;;6.18;60.05;97525.06;173286;28;2073;-69
2021/04/11 00:11:35;;;;;;;5.88;3.17;;;6.30;99.90;;;6.19;59.78;97522.25;173240;28;1140;-70
2021/04/11 00:11:41;;;;;;;5.88;3.10;;;6.30;99.80;;;6.23;59.78;97526.28;173393;28;989;-70
2021/04/11 00:11:47;;;;;;;6.20;3.05;;;6.30;99.70;;;6.24;59.14;97524.44;173301;28;1021;-70
2021/04/11 00:11:53;;;;;;;6.28;3.00;;;6.30;99.80;;;6.21;59.31;97516.75;173289;28;910;-70
2021/04/11 00:11:59;;;;;;;6.90;2.90;;;6.30;99.80;;;6.24;59.74;97525.28;173247;28;1321;-70
2021/04/11 00:12:05;;;;;;;6.18;2.85;;;6.30;99.70;;;6.20;60.05;97521.25;173325;28;967;-70
2021/04/11 00:12:11;;;;;;;5.82;2.75;;;6.30;99.70;;;6.26;59.96;97528.66;172943;28;1593;-70
2021/04/11 00:12:17;;;;;;;5.60;2.83;;;6.30;99.50;;;6.19;59.93;97510.72;173294;28;1167;-70
2021/04/11 00:12:23;;;;;;;5.47;2.90;;;6.30;99.70;;;6.23;59.28;97526.28;173933;28;1851;-70
2021/04/11 00:12:29;;;;;;;5.57;2.92;;;6.30;99.70;;;6.19;59.13;97516.06;173858;28;2017;-70
2021/04/11 00:12:35;;;;;;;5.97;3.05;;;6.30;99.60;;;6.19;58.71;97510.72;173176;28;1692;-70
2021/04/11 00:12:41;;;;;;;6.30;3.22;;;6.30;99.70;;;6.19;59.10;97516.06;174051;28;1060;-70
2021/04/11 00:12:47;;;;;;;6.60;3.35;;;6.30;99.80;;;6.16;58.66;97505.69;173893;28;1336;-70
2021/04/11 00:12:53;;;;;;;6.53;3.33;;;6.30;99.90;;;6.15;59.44;97506.69;173209;28;1433;-70
2021/04/11 00:13:01;;;;;;;5.90;3.20;;;6.30;99.90;;;6.19;59.37;97516.91;173392;28;946;-70
2021/04/11 00:13:16;;;;;;;6.10;3.20;;;6.30;99.90;;;6.17;59.15;97513.53;173338;28;1025;-70
2021/04/11 00:13:37;;;;;;;6.05;3.00;;;6.30;99.90;;;6.20;59.44;97520.41;173717;28;1478;-70
2021/04/11 00:13:43;;;;;;;7.01;3.01;;;6.30;99.90;;;6.20;59.64;97515.91;175371;28;1220;-70
2021/04/11 00:13:55;;;;;;;7.03;2.88;;;6.30;99.90;;;6.18;58.70;97520.56;174667;28;1393;-70
2021/04/11 00:14:02;;;;;;;6.64;2.86;;;6.30;99.90;;;6.21;59.38;97520.25;173336;28;1204;-70
2021/04/11 00:14:08;;;;;;;7.04;3.06;;;6.30;99.90;;;6.22;59.55;97513.06;172240;28;2150;-70
2021/04/11 00:14:14;;;;;;;6.57;3.00;;;6.30;99.90;;;6.25;60.05;97518.09;172566;28;1815;-70
2021/04/11 00:14:20;;;;;;;6.85;3.22;;;6.30;99.90;;;6.28;59.53;97518.59;173976;28;2155;-70
2021/04/11 00:14:25;;;;;;;6.88;3.40;;;6.30;99.90;;;6.28;59.33;97525.78;174034;28;934;-70
2021/04/11 00:14:31;;;;;;;6.50;3.40;;;6.30;99.90;;;6.26;59.48;97522.47;173373;28;949;-70
2021/04/11 00:14:37;;;;;;;6.30;3.25;;;6.30;99.90;;;6.20;59.37;97515.91;172913;28;2047;-70
2021/04/11 00:14:43;;;;;;;6.43;3.15;;;6.30;99.90;;;6.24;58.84;97521.75;172738;28;930;-70
2021/04/11 00:14:49;;;;;;;6.07;2.95;;;6.30;99.90;;;6.23;58.81;97525.44;172653;28;1017;-70
2021/04/11 00:14:55;;;;;;;5.60;2.87;;;6.30;99.90;;;6.22;59.20;97521.06;172714;28;871;-70
2021/04/11 00:15:02;;;;;;;5.63;2.97;;;6.30;99.90;;;6.22;59.51;97521.06;172702;28;1136;-70
2021/04/11 00:15:11;;;;;;;5.44;3.16;;;6.30;99.90;;;6.20;59.63;97517.75;173123;28;1964;-70
2021/04/11 00:15:19;;;;;;;5.57;3.30;;;6.30;99.90;;;6.16;59.40;97513.72;172624;28;1065;-70
2021/04/11 00:15:25;;;;;;;5.60;3.30;;;6.30;99.90;;;6.19;59.38;97518.72;172645;28;1247;-70
2021/04/11 00:15:32;;;;;;;5.70;3.15;;;6.30;99.90;;;6.18;59.24;97517.06;173279;28;1200;-70
2021/04/11 00:15:38;;;;;;;6.13;3.07;;;6.30;99.90;;;6.15;59.07;97509.38;173427;28;843;-70
2021/04/11 00:15:44;;;;;;;5.95;3.10;;;6.30;99.90;;;6.19;59.76;97516.06;173235;28;1320;-70
2021/04/11 00:15:50;;;;;;;5.80;3.03;;;6.30;99.90;;;6.19;59.39;97518.72;173309;28;1048;-70
2021/04/11 00:15:56;;;;;;;5.80;3.07;;;6.30;99.90;;;6.21;59.46;97514.06;173954;28;1768;-70
2021/04/11 00:16:05;;;;;;;5.33;3.20;;;6.30;99.90;;;6.21;59.92;97522.09;174097;28;1021;-70
2021/04/11 00:16:11;;;;;;;5.42;3.20;;;6.30;99.90;;;6.15;59.31;97507.53;173980;28;1096;-70
2021/04/11 00:16:18;;;;;;;5.70;3.20;;;6.30;99.90;;;6.20;59.25;97521.25;172705;28;843;-70
2021/04/11 00:16:25;;;;;;;6.72;3.50;;;6.30;99.90;;;6.12;59.33;97505.16;173302;28;1172;-70
2021/04/11 00:16:30;;;;;;;6.77;3.40;;;6.30;99.90;;;6.14;59.83;97508.53;173350;28;863;-70
2021/04/11 00:16:36;;;;;;;6.93;3.38;;;6.30;99.90;;;6.17;59.69;97518.88;173364;28;865;-70
2021/04/11 00:16:42;;;;;;;6.90;3.28;;;6.30;99.90;;;6.15;60.23;97514.72;172575;28;1918;-70
2021/04/11 00:16:49;;;;;;;6.95;3.25;;;6.30;99.90;;;6.19;59.54;97518.72;173338;28;942;-70
2021/04/11 00:16:54;;;;;;;6.16;3.08;;;6.30;99.90;;;6.16;59.59;97516.38;173301;28;1335;-70
2021/04/11 00:17:00;;;;;;;6.30;3.10;;;6.30;99.90;;;6.19;59.94;97518.72;173231;28;1357;-70
2021/04/11 00:17:06;;;;;;;6.63;3.00;;;6.30;99.90;;;6.17;60.08;97518.03;173313;28;1001;-70
2021/04/11 00:17:12;;;;;;;6.80;2.97;;;6.30;99.90;;;6.19;60.00;97521.41;173767;28;1414;-70
2021/04/11 00:17:18;;;;;;;6.85;3.20;;;6.30;99.90;;;6.14;60.14;97513.88;173079;28;1428;-70
2021/04/11 00:17:24;;;;;;;6.55;3.17;;;6.30;99.90;;;6.18;60.18;97519.72;173406;28;923;-70
2021/04/11 00:17:30;;;;;;;6.43;3.20;;;6.30;99.90;;;6.21;60.32;97520.25;172738;28;941;-70
2021/04/11 00:17:36;;;;;;;5.88;3.28;;;6.30;99.90;;;6.18;60.01;97517.06;172704;28;1251;-70
2021/04/11 00:17:42;;;;;;;5.53;3.20;;;6.30;99.90;;;6.21;60.07;97520.25;172670;28;1055;-70
2021/04/11 00:17:48;;;;;;;5.25;3.08;;;6.30;99.90;;;6.18;60.01;97519.72;173128;28;1982;-70
2021/04/11 00:17:54;;;;;;;6.30;3.10;;;6.30;99.90;;;6.14;59.55;97510.34;172584;28;1191;-70
2021/04/11 00:18:00;;;;;;;6.65;3.20;;;6.30;99.90;;;6.12;59.95;97510.50;172647;28;906;-70
2021/04/11 00:18:06;;;;;;;7.83;3.30;;;6.30;99.90;;;6.19;59.98;97522.25;172743;28;847;-70
2021/04/11 00:18:13;;;;;;;8.20;3.30;;;6.30;99.90;;;6.18;60.20;97519.72;173304;28;1302;-70
2021/04/11 00:18:19;;;;;;;8.23;3.30;;;6.30;99.90;;;6.12;59.79;97518.53;173387;28;966;-70
2021/04/11 00:18:25;;;;;;;7.03;3.10;;;6.30;99.90;;;6.13;60.47;97516.69;173174;28;1318;-70
2021/04/11 00:18:31;;;;;;;6.73;3.03;;;6.30;99.90;;;6.14;60.19;97524.56;173989;28;1091;-70
2021/04/11 00:18:37;;;;;;;5.93;3.03;;;6.30;99.90;;;6.11;60.30;97514.19;174738;28;1112;-70
2021/04/11 00:18:43;;;;;;;6.18;3.05;;;6.30;99.90;;;6.16;60.42;97524.41;174733;28;1080;-70
2021/04/11 00:18:49;;;;;;;6.80;3.15;;;6.30;99.90;;;6.16;59.68;97527.09;173903;28;1851;-70
2021/04/11 00:18:55;;;;;;;7.43;3.20;;;6.30;99.90;;;6.15;60.39;97526.25;174046;28;1297;-70
2021/04/11 00:19:01;;;;;;;7.93;3.30;;;6.30;99.90;;;6.10;60.21;97517.84;174073;28;874;-70
2021/04/11 00:19:08;;;;;;;8.32;3.25;;;6.30;99.90;;;6.14;60.17;97524.56;173930;28;1049;-70
2021/04/11 00:19:14;;;;;;;7.87;3.40;;;6.30;99.90;;;6.17;60.44;97534.06;174735;28;1116;-70
2021/04/11 00:19:20;;;;;;;7.37;3.30;;;6.30;99.90;;;6.15;60.37;97520.91;174483;28;1363;-70
2021/04/11 00:19:26;;;;;;;7.75;3.35;;;6.30;99.90;;;6.13;60.40;97516.69;174663;28;1226;-70
2021/04/11 00:19:32;;;;;;;7.57;3.42;;;6.30;99.90;;;6.12;59.98;97520.34;174035;28;929;-70
2021/04/11 00:19:38;;;;;;;6.90;3.40;;;6.30;99.90;;;6.12;60.37;97517.69;173376;28;992;-70
2021/04/11 00:19:44;;;;;;;6.72;3.22;;;6.30;99.90;;;6.12;60.58;97517.69;174084;28;1056;-70
2021/04/11 00:19:50;;;;;;;6.38;3.20;;;6.30;99.90;;;6.15;60.28;97525.41;173791;28;4120;-70
2021/04/11 00:19:56;;;;;;;6.30;3.13;;;6.30;99.90;;;6.11;60.16;97516.88;173938;28;1133;-70
2021/04/11 00:20:06;;;;;;;6.20;3.10;;;6.30;99.90;;;6.07;60.47;97510.13;174051;28;995;-70
2021/04/11 00:20:13;;;;;;;6.77;3.10;;;6.30;99.90;;;6.10;60.44;97517.84;173889;28;2103;-70
2021/04/11 00:20:20;;;;;;;6.86;3.08;;;6.30;99.90;;;6.11;60.07;97516.88;173005;28;1191;-70
2021/04/11 00:20:26;;;;;;;6.76;3.10;;;6.30;99.90;;;6.08;60.36;97514.50;172039;28;918;-70
2021/04/11 00:20:32;;;;;;;6.95;3.00;;;6.30;99.90;;;6.11;60.06;97514.19;172658;28;1120;-70
2021/04/11 00:20:38;;;;;;;6.32;3.08;;;6.30;99.90;;;6.14;60.73;97529.06;173968;28;1453;-70
2021/04/11 00:20:45;;;;;;;6.55;3.10;;;6.20;99.90;;;6.07;60.48;97517.31;174036;28;1035;-70
2021/04/11 00:20:52;;;;;;;6.80;3.20;;;6.20;99.90;;;6.10;60.13;97522.38;173088;28;1470;-70
2021/04/11 00:20:58;;;;;;;7.60;3.23;;;6.30;99.90;;;6.12;59.98;97525.69;173294;28;1285;-70
2021/04/11 00:21:05;;;;;;;7.10;3.20;;;6.20;99.90;;;6.06;60.47;97521.84;172675;28;910;-70
2021/04/11 00:21:11;;;;;;;6.73;3.10;;;6.20;99.90;;;6.09;60.11;97526.03;173008;28;1291;-70
2021/04/11 00:21:18;;;;;;;6.80;3.10;;;6.20;99.90;;;6.02;60.18;97508.94;173982;28;954;-70
2021/04/11 00:21:24;;;;;;;6.48;2.90;;;6.20;99.90;;;6.07;60.39;97520.81;174490;28;1923;-70
2021/04/11 00:21:30;;;;;;;6.35;3.00;;;6.20;99.90;;;6.11;60.65;97516.03;175155;28;1484;-70
2021/04/11 00:21:36;;;;;;;6.55;3.03;;;6.20;99.90;;;6.06;60.36;97513.00;174057;28;966;-70
2021/04/11 00:21:42;;;;;;;8.20;3.10;;;6.20;99.90;;;6.11;60.07;97524.03;172377;28;1054;-70
2021/04/11 00:21:48;;;;;;;8.20;3.23;;;6.20;99.90;;;6.10;60.48;97522.38;173290;28;1347;-70
2021/04/11 00:21:54;;;;;;;7.72;3.40;;;6.20;99.90;;;6.11;60.67;97518.69;173981;28;2305;-70
2021/04/11 00:22:00;;;;;;;8.10;3.57;;;6.20;99.90;;;6.13;60.68;97522.03;173836;28;1515;-70
2021/04/11 00:22:06;;;;;;;8.32;3.55;;;6.20;99.90;;;6.11;60.62;97522.22;173327;28;950;-70
2021/04/11 00:22:12;;;;;;;7.30;3.65;;;6.20;99.90;;;6.14;60.56;97523.72;173225;28;2029;-70
2021/04/11 00:22:18;;;;;;;7.50;3.80;;;6.20;99.90;;;6.15;60.52;97517.38;173407;28;886;-70
2021/04/11 00:22:24;;;;;;;7.68;3.70;;;6.20;99.90;;;6.06;60.29;97507.66;173955;28;957;-70
2021/04/11 00:22:30;;;;;;;7.13;3.55;;;6.20;99.90;;;6.11;60.42;97518.69;173332;28;888;-70
2021/04/11 00:22:36;;;;;;;6.82;3.60;;;6.20;99.90;;;6.08;59.90;97510.97;173277;28;1230;-70
2021/04/11 00:22:45;;;;;;;6.87;3.53;;;6.20;99.90;;;6.13;60.08;97516.69;171981;28;1050;-70
2021/04/11 00:22:51;;;;;;;7.00;3.40;;;6.20;99.90;;;6.08;60.23;97514.50;172319;28;1489;-70
2021/04/11 00:22:57;;;;;;;6.67;3.30;;;6.20;99.90;;;6.07;60.32;97509.28;173760;28;1868;-70
2021/04/11 00:23:05;;;;;;;6.40;3.13;;;6.20;99.90;;;6.11;60.21;97516.03;174071;28;1041;-70
2021/04/11 00:23:12;;;;;;;5.72;3.08;;;6.20;99.90;;;6.10;60.37;97522.38;173974;28;1037;-70
2021/04/11 00:23:21;;;;;;;5.98;3.16;;;6.20;99.90;;;6.10;60.92;97523.22;174601;28;1047;-70
2021/04/11 00:23:27;;;;;;;6.63;3.38;;;6.20;99.90;;;6.06;60.26;97507.66;173344;28;1133;-70
2021/04/11 00:23:34;;;;;;;7.07;3.58;;;6.20;99.90;;;6.07;60.97;97510.13;174649;28;1602;-70
2021/04/11 00:23:41;;;;;;;7.67;3.83;;;6.20;99.90;;;6.09;60.82;97510.00;173966;28;1474;-70
2021/04/11 00:23:46;;;;;;;6.90;3.87;;;6.20;99.90;;;6.04;61.13;97502.47;173164;28;2983;-70
2021/04/11 00:23:52;;;;;;;6.03;3.67;;;6.20;99.90;;;6.12;60.60;97515.00;173280;28;1051;-70
2021/04/11 00:23:59;;;;;;;5.70;3.67;;;6.20;99.90;;;6.10;60.61;97511.66;174222;28;2601;-70
2021/04/11 00:24:05;;;;;;;5.26;3.50;;;6.20;99.90;;;6.13;60.96;97514.84;173148;28;1249;-70
2021/04/11 00:24:11;;;;;;;5.00;3.33;;;6.20;99.90;;;6.15;60.31;97517.38;173618;28;1621;-70
2021/04/11 00:24:17;;;;;;;4.80;3.22;;;6.20;99.90;;;6.11;60.61;97514.19;173356;28;992;-70
2021/04/11 00:24:23;;;;;;;5.33;3.20;;;6.20;99.90;;;6.15;60.46;97525.41;173354;28;958;-70
2021/04/11 00:24:29;;;;;;;5.26;3.20;;;6.20;99.90;;;6.11;60.33;97519.53;173215;28;1381;-70
2021/04/11 00:24:35;;;;;;;5.88;3.17;;;6.20;99.90;;;6.11;60.89;97522.22;173350;28;902;-70
2021/04/11 00:24:41;;;;;;;5.63;3.00;;;6.20;99.90;;;6.13;60.58;97525.53;172673;28;863;-70
2021/04/11 00:24:47;;;;;;;5.97;3.05;;;6.20;99.90;;;6.10;60.90;97512.50;173229;28;1287;-70
2021/04/11 00:24:53;;;;;;;6.17;3.17;;;6.20;99.90;;;6.14;60.96;97516.53;174034;28;1457;-70
2021/04/11 00:24:59;;;;;;;6.50;3.20;;;6.20;99.90;;;6.12;60.52;97509.66;174072;28;1001;-70
2021/04/11 00:25:16;;;;;;;6.40;3.30;;;6.20;99.90;;;6.13;60.45;97520.19;172998;28;2045;-70
2021/04/11 00:25:33;;;;;;;7.96;3.22;;;6.20;99.90;;;6.11;60.48;97518.69;173249;28;1705;-70
2021/04/11 00:25:40;;;;;;;7.65;3.15;;;6.20;99.90;;;6.06;60.83;97515.66;173972;28;1221;-70
2021/04/11 00:25:46;;;;;;;6.62;3.22;;;6.20;99.90;;;6.10;60.74;97517.03;173311;28;906;-70
2021/04/11 00:25:53;;;;;;;6.25;3.20;;;6.20;99.90;;;6.11;60.90;97516.03;173297;28;1423;-70
2021/04/11 00:25:59;;;;;;;6.58;3.24;;;6.20;99.90;;;6.13;60.45;97516.69;173903;28;1364;-70
2021/04/11 00:26:07;;;;;;;6.83;3.30;;;6.20;99.90;;;6.12;60.70;97515.00;173764;28;1626;-70
2021/04/11 00:26:13;;;;;;;6.98;3.33;;;6.20;99.90;;;6.15;61.07;97520.06;173744;28;2291;-70
2021/04/11 00:26:19;;;;;;;7.57;3.43;;;6.20;99.90;;;6.12;60.76;97512.34;174056;28;942;-70
2021/04/11 00:26:25;;;;;;;7.38;3.55;;;6.20;99.90;;;6.03;61.13;97498.09;174530;28;1029;-70
2021/04/11 00:26:31;;;;;;;7.78;3.60;;;6.20;99.90;;;6.12;60.96;97515.84;173954;28;689;-70
2021/04/11 00:26:36;;;;;;;8.45;3.60;;;6.20;99.90;;;6.11;61.02;97510.69;174022;28;871;-70
2021/04/11 00:26:42;;;;;;;8.40;3.65;;;6.20;99.90;;;6.15;60.84;97522.72;173258;28;1207;-70
2021/04/11 00:26:48;;;;;;;8.30;3.70;;;6.20;99.90;;;6.12;60.60;97515.84;173265;28;902;-70
2021/04/11 00:26:54;;;;;;;8.80;3.67;;;6.20;99.90;;;6.14;60.40;97518.38;173340;28;1449;-70
2021/04/11 00:27:00;;;;;;;8.27;3.70;;;6.20;99.90;;;6.13;60.62;97519.34;173311;28;1452;-70
2021/04/11 00:27:06;;;;;;;7.38;3.67;;;6.20;99.90;;;6.13;60.99;97511.34;173143;28;1246;-70
2021/04/11 00:27:12;;;;;;;6.56;3.70;;;6.20;99.90;;;6.11;60.48;97508.00;173868;28;1742;-70
2021/04/11 00:27:18;;;;;;;6.47;3.70;;;6.20;99.90;;;6.17;60.70;97521.56;173278;28;1724;-70
2021/04/11 00:27:24;;;;;;;6.28;3.67;;;6.20;99.90;;;6.13;60.71;97503.31;174016;28;964;-70
2021/04/11 00:27:30;;;;;;;6.57;3.70;;;6.20;99.90;;;6.02;61.19;97490.22;174029;28;914;-70
2021/04/11 00:27:36;;;;;;;6.68;3.80;;;6.20;99.90;;;6.15;60.91;97510.19;172533;28;2191;-70
2021/04/11 00:27:44;;;;;;;7.05;3.80;;;6.30;99.90;;;6.20;61.13;97518.59;172654;28;896;-70
2021/04/11 00:27:49;;;;;;;6.67;3.70;;;6.30;99.90;;;6.18;60.79;97507.19;173343;28;1116;-70
2021/04/11 00:27:57;;;;;;;6.47;3.60;;;6.30;99.90;;;6.22;60.72;97513.06;173374;28;969;-70
2021/04/11 00:28:04;;;;;;;6.87;3.60;;;6.30;99.90;;;6.14;60.98;97505.00;173374;28;922;-70
2021/04/11 00:28:13;;;;;;;6.90;3.58;;;6.30;99.90;;;6.22;61.17;97510.38;171986;28;992;-70
2021/04/11 00:28:20;;;;;;;7.19;3.54;;;6.30;99.90;;;6.19;60.83;97514.22;173099;28;2007;-70
2021/04/11 00:28:26;;;;;;;6.80;3.40;;;6.30;99.90;;;6.21;60.48;97519.44;172644;28;1776;-70
2021/04/11 00:28:32;;;;;;;6.47;3.35;;;6.30;99.90;;;6.15;60.75;97507.53;172543;28;1173;-70
2021/04/11 00:28:38;;;;;;;6.13;3.30;;;6.30;99.90;;;6.22;60.14;97521.91;173230;28;1241;-70
2021/04/11 00:28:44;;;;;;;6.00;3.40;;;6.30;99.90;;;6.18;60.48;97512.53;173348;28;963;-70
2021/04/11 00:28:50;;;;;;;6.63;3.47;;;6.30;99.90;;;6.22;60.61;97516.56;173729;28;1213;-70
2021/04/11 00:28:56;;;;;;;7.80;3.70;;;6.30;99.90;;;6.26;60.67;97517.09;173286;28;1642;-70
2021/04/11 00:29:04;;;;;;;7.68;3.75;;;6.30;99.90;;;6.26;60.57;97514.44;173341;28;812;-70
2021/04/11 00:29:10;;;;;;;7.94;3.66;;;6.30;99.90;;;6.21;60.75;97498.03;173317;28;1027;-70
2021/04/11 00:29:16;;;;;;;7.82;3.55;;;6.30;99.90;;;6.28;60.29;97515.09;172660;28;1064;-70
2021/04/11 00:29:22;;;;;;;7.30;3.55;;;6.30;99.90;;;6.27;60.84;97508.09;173192;28;2031;-70
2021/04/11 00:29:28;;;;;;;6.53;3.50;;;6.30;99.90;;;6.30;60.70;97508.59;173352;28;1233;-70
2021/04/11 00:29:34;;;;;;;6.80;3.53;;;6.30;99.90;;;6.26;60.71;97501.06;173826;28;965;-70
2021/04/11 00:29:41;;;;;;;7.22;3.60;;;6.30;99.90;;;6.27;60.71;97492.88;173351;28;949;-70
2021/04/11 00:29:47;;;;;;;6.60;3.57;;;6.30;99.90;;;6.28;60.76;97502.56;173306;28;930;-70
2021/04/11 00:29:53;;;;;;;6.63;3.45;;;6.30;99.90;;;6.30;60.87;97503.25;173992;28;1490;-70
2021/04/11 00:29:59;;;;;;;6.50;3.43;;;6.30;99.90;;;6.31;60.80;97501.44;174054;28;946;-70
2021/04/11 00:30:06;;;;;;;6.43;3.38;;;6.30;99.90;;;6.34;60.41;97504.63;173882;28;1943;-70
2021/04/11 00:30:16;;;;;;;8.40;3.40;;;6.30;99.90;;;6.31;60.76;97499.59;173412;28;2042;-70